sensor_id;sensor_type;location;lat;lon;timestamp;P1;durP1;ratioP1;P2;durP2;ratioP2
57567;SDS011;43403;51.948;5.922;2024-02-04T00:00:06;20.10;;;14.27;;
57567;SDS011;43403;51.948;5.922;2024-02-04T00:02:33;16.30;;;12.35;;
57567;SDS011;43403;51.948;5.922;2024-02-04T00:04:59;19.90;;;12.25;;
57567;SDS011;43403;51.948;5.922;2024-02-04T00:07:26;16.58;;;11.02;;
57567;SDS011;43403;51.948;5.922;2024-02-04T00:09:53;16.92;;;12.20;;
57567;SDS011;43403;51.948;5.922;2024-02-04T00:12:19;14.90;;;10.90;;
57567;SDS011;43403;51.948;5.922;2024-02-04T00:14:46;17.45;;;12.10;;
57567;SDS011;43403;51.948;5.922;2024-02-04T00:17:12;15.32;;;10.80;;
57567;SDS011;43403;51.948;5.922;2024-02-04T00:19:40;17.07;;;12.53;;
57567;SDS011;43403;51.948;5.922;2024-02-04T00:22:07;15.43;;;11.75;;
57567;SDS011;43403;51.948;5.922;2024-02-04T00:24:34;17.05;;;11.57;;
57567;SDS011;43403;51.948;5.922;2024-02-04T00:27:00;14.38;;;11.20;;
57567;SDS011;43403;51.948;5.922;2024-02-04T00:29:27;16.33;;;11.85;;
57567;SDS011;43403;51.948;5.922;2024-02-04T00:31:53;16.80;;;10.85;;
57567;SDS011;43403;51.948;5.922;2024-02-04T00:34:20;18.42;;;12.18;;
57567;SDS011;43403;51.948;5.922;2024-02-04T00:36:47;20.83;;;12.35;;
57567;SDS011;43403;51.948;5.922;2024-02-04T00:39:13;22.90;;;14.77;;
57567;SDS011;43403;51.948;5.922;2024-02-04T00:41:40;28.73;;;15.60;;
57567;SDS011;43403;51.948;5.922;2024-02-04T00:44:06;25.63;;;14.32;;
57567;SDS011;43403;51.948;5.922;2024-02-04T00:46:32;27.02;;;14.52;;
57567;SDS011;43403;51.948;5.922;2024-02-04T00:48:59;24.92;;;14.20;;
57567;SDS011;43403;51.948;5.922;2024-02-04T00:51:25;23.45;;;14.82;;
57567;SDS011;43403;51.948;5.922;2024-02-04T00:53:52;25.40;;;14.00;;
57567;SDS011;43403;51.948;5.922;2024-02-04T00:56:19;31.88;;;15.27;;
57567;SDS011;43403;51.948;5.922;2024-02-04T00:58:45;26.02;;;15.18;;
57567;SDS011;43403;51.948;5.922;2024-02-04T01:01:12;31.83;;;15.50;;
57567;SDS011;43403;51.948;5.922;2024-02-04T01:03:38;33.88;;;15.02;;
57567;SDS011;43403;51.948;5.922;2024-02-04T01:06:05;27.80;;;14.68;;
57567;SDS011;43403;51.948;5.922;2024-02-04T01:08:31;31.80;;;15.40;;
57567;SDS011;43403;51.948;5.922;2024-02-04T01:10:58;31.77;;;15.50;;
57567;SDS011;43403;51.948;5.922;2024-02-04T01:13:24;39.38;;;16.52;;
57567;SDS011;43403;51.948;5.922;2024-02-04T01:15:50;30.83;;;15.05;;
57567;SDS011;43403;51.948;5.922;2024-02-04T01:18:17;30.85;;;14.90;;
57567;SDS011;43403;51.948;5.922;2024-02-04T01:20:43;28.33;;;15.02;;
57567;SDS011;43403;51.948;5.922;2024-02-04T01:23:10;27.27;;;14.18;;
57567;SDS011;43403;51.948;5.922;2024-02-04T01:25:36;29.08;;;14.90;;
57567;SDS011;43403;51.948;5.922;2024-02-04T01:28:07;31.30;;;14.55;;
57567;SDS011;43403;51.948;5.922;2024-02-04T01:30:34;30.73;;;15.65;;
57567;SDS011;43403;51.948;5.922;2024-02-04T01:33:00;31.63;;;14.65;;
57567;SDS011;43403;51.948;5.922;2024-02-04T01:35:27;26.48;;;13.40;;
57567;SDS011;43403;51.948;5.922;2024-02-04T01:37:53;32.33;;;14.43;;
57567;SDS011;43403;51.948;5.922;2024-02-04T01:40:20;27.25;;;13.40;;
57567;SDS011;43403;51.948;5.922;2024-02-04T01:42:46;29.58;;;14.75;;
57567;SDS011;43403;51.948;5.922;2024-02-04T01:45:13;30.83;;;14.60;;
57567;SDS011;43403;51.948;5.922;2024-02-04T01:47:39;28.85;;;13.75;;
57567;SDS011;43403;51.948;5.922;2024-02-04T01:50:06;26.55;;;13.90;;
57567;SDS011;43403;51.948;5.922;2024-02-04T01:52:32;29.70;;;13.20;;
57567;SDS011;43403;51.948;5.922;2024-02-04T01:55:00;23.05;;;12.45;;
57567;SDS011;43403;51.948;5.922;2024-02-04T01:57:27;22.65;;;13.00;;
57567;SDS011;43403;51.948;5.922;2024-02-04T01:59:54;28.20;;;13.93;;
57567;SDS011;43403;51.948;5.922;2024-02-04T02:02:22;24.00;;;11.50;;
57567;SDS011;43403;51.948;5.922;2024-02-04T02:04:49;30.25;;;11.90;;
57567;SDS011;43403;51.948;5.922;2024-02-04T02:07:16;25.48;;;12.20;;
57567;SDS011;43403;51.948;5.922;2024-02-04T02:12:12;20.65;;;11.27;;
57567;SDS011;43403;51.948;5.922;2024-02-04T02:14:47;20.15;;;11.13;;
57567;SDS011;43403;51.948;5.922;2024-02-04T02:17:16;23.63;;;10.60;;
57567;SDS011;43403;51.948;5.922;2024-02-04T02:19:47;24.20;;;11.63;;
57567;SDS011;43403;51.948;5.922;2024-02-04T02:22:26;21.23;;;10.23;;
57567;SDS011;43403;51.948;5.922;2024-02-04T02:24:56;22.85;;;10.63;;
57567;SDS011;43403;51.948;5.922;2024-02-04T02:27:22;20.25;;;9.95;;
57567;SDS011;43403;51.948;5.922;2024-02-04T02:29:49;20.83;;;10.23;;
57567;SDS011;43403;51.948;5.922;2024-02-04T02:32:16;26.13;;;10.70;;
57567;SDS011;43403;51.948;5.922;2024-02-04T02:34:42;20.65;;;10.00;;
57567;SDS011;43403;51.948;5.922;2024-02-04T02:37:13;23.58;;;10.93;;
57567;SDS011;43403;51.948;5.922;2024-02-04T02:39:42;21.30;;;9.85;;
57567;SDS011;43403;51.948;5.922;2024-02-04T02:42:11;20.50;;;10.05;;
57567;SDS011;43403;51.948;5.922;2024-02-04T02:44:38;20.85;;;9.63;;
57567;SDS011;43403;51.948;5.922;2024-02-04T02:47:05;18.80;;;9.85;;
57567;SDS011;43403;51.948;5.922;2024-02-04T02:49:32;18.88;;;10.73;;
57567;SDS011;43403;51.948;5.922;2024-02-04T02:51:59;21.30;;;10.50;;
57567;SDS011;43403;51.948;5.922;2024-02-04T02:54:25;17.20;;;9.15;;
57567;SDS011;43403;51.948;5.922;2024-02-04T02:56:52;21.42;;;11.40;;
57567;SDS011;43403;51.948;5.922;2024-02-04T02:59:18;24.02;;;10.23;;
57567;SDS011;43403;51.948;5.922;2024-02-04T03:01:45;20.60;;;11.20;;
57567;SDS011;43403;51.948;5.922;2024-02-04T03:04:11;25.27;;;11.02;;
57567;SDS011;43403;51.948;5.922;2024-02-04T03:06:38;24.42;;;10.55;;
57567;SDS011;43403;51.948;5.922;2024-02-04T03:09:04;21.20;;;11.98;;
57567;SDS011;43403;51.948;5.922;2024-02-04T03:11:31;25.67;;;12.30;;
57567;SDS011;43403;51.948;5.922;2024-02-04T03:13:57;27.65;;;12.32;;
57567;SDS011;43403;51.948;5.922;2024-02-04T03:16:24;24.42;;;12.73;;
57567;SDS011;43403;51.948;5.922;2024-02-04T03:18:51;22.45;;;12.88;;
57567;SDS011;43403;51.948;5.922;2024-02-04T03:21:18;20.85;;;12.55;;
57567;SDS011;43403;51.948;5.922;2024-02-04T03:23:44;27.88;;;15.10;;
57567;SDS011;43403;51.948;5.922;2024-02-04T03:26:11;29.52;;;15.07;;
57567;SDS011;43403;51.948;5.922;2024-02-04T03:28:38;26.33;;;15.35;;
57567;SDS011;43403;51.948;5.922;2024-02-04T03:31:04;34.53;;;17.48;;
57567;SDS011;43403;51.948;5.922;2024-02-04T03:33:30;31.92;;;17.95;;
57567;SDS011;43403;51.948;5.922;2024-02-04T03:35:57;29.95;;;17.42;;
57567;SDS011;43403;51.948;5.922;2024-02-04T03:38:23;43.33;;;19.30;;
57567;SDS011;43403;51.948;5.922;2024-02-04T03:40:50;38.67;;;20.25;;
57567;SDS011;43403;51.948;5.922;2024-02-04T03:43:16;27.33;;;17.52;;
57567;SDS011;43403;51.948;5.922;2024-02-04T03:45:42;30.27;;;16.45;;
57567;SDS011;43403;51.948;5.922;2024-02-04T03:48:09;31.15;;;15.95;;
57567;SDS011;43403;51.948;5.922;2024-02-04T03:50:36;27.80;;;14.63;;
57567;SDS011;43403;51.948;5.922;2024-02-04T03:53:02;20.73;;;13.40;;
57567;SDS011;43403;51.948;5.922;2024-02-04T03:55:29;26.75;;;13.35;;
57567;SDS011;43403;51.948;5.922;2024-02-04T03:57:55;21.23;;;11.75;;
57567;SDS011;43403;51.948;5.922;2024-02-04T04:00:25;21.67;;;11.57;;
57567;SDS011;43403;51.948;5.922;2024-02-04T04:02:52;27.20;;;10.85;;
57567;SDS011;43403;51.948;5.922;2024-02-04T04:05:18;19.83;;;10.65;;
57567;SDS011;43403;51.948;5.922;2024-02-04T04:07:45;18.92;;;10.05;;
57567;SDS011;43403;51.948;5.922;2024-02-04T04:10:11;19.13;;;9.43;;
57567;SDS011;43403;51.948;5.922;2024-02-04T04:12:38;21.23;;;10.40;;
57567;SDS011;43403;51.948;5.922;2024-02-04T04:15:04;21.25;;;9.20;;
57567;SDS011;43403;51.948;5.922;2024-02-04T04:17:31;26.63;;;10.40;;
57567;SDS011;43403;51.948;5.922;2024-02-04T04:19:58;24.27;;;10.50;;
57567;SDS011;43403;51.948;5.922;2024-02-04T04:22:24;21.13;;;11.07;;
57567;SDS011;43403;51.948;5.922;2024-02-04T04:24:51;17.52;;;10.15;;
57567;SDS011;43403;51.948;5.922;2024-02-04T04:27:17;21.85;;;10.93;;
57567;SDS011;43403;51.948;5.922;2024-02-04T04:29:43;19.08;;;10.77;;
57567;SDS011;43403;51.948;5.922;2024-02-04T04:32:10;21.67;;;10.98;;
57567;SDS011;43403;51.948;5.922;2024-02-04T04:34:37;20.98;;;10.85;;
57567;SDS011;43403;51.948;5.922;2024-02-04T04:37:03;18.15;;;10.00;;
57567;SDS011;43403;51.948;5.922;2024-02-04T04:39:30;18.23;;;10.20;;
57567;SDS011;43403;51.948;5.922;2024-02-04T04:41:56;20.02;;;9.75;;
57567;SDS011;43403;51.948;5.922;2024-02-04T04:44:22;21.45;;;10.38;;
57567;SDS011;43403;51.948;5.922;2024-02-04T04:46:49;21.73;;;11.57;;
57567;SDS011;43403;51.948;5.922;2024-02-04T04:49:15;19.77;;;10.93;;
57567;SDS011;43403;51.948;5.922;2024-02-04T04:51:45;20.45;;;11.50;;
57567;SDS011;43403;51.948;5.922;2024-02-04T04:54:12;19.02;;;10.40;;
57567;SDS011;43403;51.948;5.922;2024-02-04T04:56:39;26.05;;;11.07;;
57567;SDS011;43403;51.948;5.922;2024-02-04T04:59:12;17.27;;;10.95;;
57567;SDS011;43403;51.948;5.922;2024-02-04T05:01:44;23.63;;;11.75;;
57567;SDS011;43403;51.948;5.922;2024-02-04T05:04:11;20.65;;;11.02;;
57567;SDS011;43403;51.948;5.922;2024-02-04T05:06:37;19.80;;;11.15;;
57567;SDS011;43403;51.948;5.922;2024-02-04T05:09:04;25.63;;;11.95;;
57567;SDS011;43403;51.948;5.922;2024-02-04T05:11:31;23.38;;;12.07;;
57567;SDS011;43403;51.948;5.922;2024-02-04T05:13:57;21.83;;;12.23;;
57567;SDS011;43403;51.948;5.922;2024-02-04T05:16:24;26.17;;;12.88;;
57567;SDS011;43403;51.948;5.922;2024-02-04T05:18:50;22.98;;;11.05;;
57567;SDS011;43403;51.948;5.922;2024-02-04T05:21:17;19.45;;;10.50;;
57567;SDS011;43403;51.948;5.922;2024-02-04T05:23:43;20.13;;;10.63;;
57567;SDS011;43403;51.948;5.922;2024-02-04T05:26:10;22.20;;;11.63;;
57567;SDS011;43403;51.948;5.922;2024-02-04T05:28:36;21.25;;;9.45;;
57567;SDS011;43403;51.948;5.922;2024-02-04T05:31:03;17.27;;;9.30;;
57567;SDS011;43403;51.948;5.922;2024-02-04T05:33:29;17.08;;;9.38;;
57567;SDS011;43403;51.948;5.922;2024-02-04T05:35:56;17.55;;;9.65;;
57567;SDS011;43403;51.948;5.922;2024-02-04T05:38:22;20.23;;;10.82;;
57567;SDS011;43403;51.948;5.922;2024-02-04T05:40:49;18.52;;;9.80;;
57567;SDS011;43403;51.948;5.922;2024-02-04T05:43:15;19.52;;;9.07;;
57567;SDS011;43403;51.948;5.922;2024-02-04T05:45:42;19.98;;;9.02;;
57567;SDS011;43403;51.948;5.922;2024-02-04T05:48:09;20.08;;;8.88;;
57567;SDS011;43403;51.948;5.922;2024-02-04T05:50:35;18.45;;;9.30;;
57567;SDS011;43403;51.948;5.922;2024-02-04T05:53:02;20.27;;;10.05;;
57567;SDS011;43403;51.948;5.922;2024-02-04T05:55:29;19.98;;;9.05;;
57567;SDS011;43403;51.948;5.922;2024-02-04T05:57:55;16.92;;;10.18;;
57567;SDS011;43403;51.948;5.922;2024-02-04T06:00:22;19.05;;;9.00;;
57567;SDS011;43403;51.948;5.922;2024-02-04T06:02:49;22.90;;;8.95;;
57567;SDS011;43403;51.948;5.922;2024-02-04T06:05:15;19.65;;;9.45;;
57567;SDS011;43403;51.948;5.922;2024-02-04T06:07:42;21.15;;;10.27;;
57567;SDS011;43403;51.948;5.922;2024-02-04T06:10:09;19.15;;;9.10;;
57567;SDS011;43403;51.948;5.922;2024-02-04T06:12:36;20.27;;;9.57;;
57567;SDS011;43403;51.948;5.922;2024-02-04T06:15:04;20.35;;;10.15;;
57567;SDS011;43403;51.948;5.922;2024-02-04T06:17:30;18.30;;;9.32;;
57567;SDS011;43403;51.948;5.922;2024-02-04T06:19:57;19.95;;;9.35;;
57567;SDS011;43403;51.948;5.922;2024-02-04T06:22:25;22.45;;;10.15;;
57567;SDS011;43403;51.948;5.922;2024-02-04T06:24:52;23.50;;;10.88;;
57567;SDS011;43403;51.948;5.922;2024-02-04T06:27:18;19.48;;;11.73;;
57567;SDS011;43403;51.948;5.922;2024-02-04T06:29:45;18.00;;;9.85;;
57567;SDS011;43403;51.948;5.922;2024-02-04T06:32:11;21.73;;;12.13;;
57567;SDS011;43403;51.948;5.922;2024-02-04T06:34:39;22.90;;;11.37;;
57567;SDS011;43403;51.948;5.922;2024-02-04T06:37:06;21.33;;;12.65;;
57567;SDS011;43403;51.948;5.922;2024-02-04T06:39:32;20.13;;;12.00;;
57567;SDS011;43403;51.948;5.922;2024-02-04T06:41:59;17.30;;;10.48;;
57567;SDS011;43403;51.948;5.922;2024-02-04T06:44:25;19.35;;;12.02;;
57567;SDS011;43403;51.948;5.922;2024-02-04T06:46:51;20.65;;;13.05;;
57567;SDS011;43403;51.948;5.922;2024-02-04T06:49:18;21.13;;;13.18;;
57567;SDS011;43403;51.948;5.922;2024-02-04T06:51:45;24.80;;;13.27;;
57567;SDS011;43403;51.948;5.922;2024-02-04T06:54:12;26.92;;;15.13;;
57567;SDS011;43403;51.948;5.922;2024-02-04T06:56:38;27.42;;;16.20;;
57567;SDS011;43403;51.948;5.922;2024-02-04T06:59:05;29.92;;;17.27;;
57567;SDS011;43403;51.948;5.922;2024-02-04T07:01:32;30.50;;;16.75;;
57567;SDS011;43403;51.948;5.922;2024-02-04T07:03:58;32.75;;;16.30;;
57567;SDS011;43403;51.948;5.922;2024-02-04T07:06:25;28.42;;;17.13;;
57567;SDS011;43403;51.948;5.922;2024-02-04T07:08:51;27.38;;;15.68;;
57567;SDS011;43403;51.948;5.922;2024-02-04T07:11:18;31.23;;;17.52;;
57567;SDS011;43403;51.948;5.922;2024-02-04T07:13:44;28.75;;;16.10;;
57567;SDS011;43403;51.948;5.922;2024-02-04T07:16:11;27.30;;;15.55;;
57567;SDS011;43403;51.948;5.922;2024-02-04T07:18:37;22.00;;;13.27;;
57567;SDS011;43403;51.948;5.922;2024-02-04T07:21:04;20.95;;;12.85;;
57567;SDS011;43403;51.948;5.922;2024-02-04T07:23:31;22.25;;;13.38;;
57567;SDS011;43403;51.948;5.922;2024-02-04T07:25:57;23.05;;;12.63;;
57567;SDS011;43403;51.948;5.922;2024-02-04T07:28:24;20.48;;;11.82;;
57567;SDS011;43403;51.948;5.922;2024-02-04T07:30:50;21.75;;;12.20;;
57567;SDS011;43403;51.948;5.922;2024-02-04T07:33:16;23.40;;;12.60;;
57567;SDS011;43403;51.948;5.922;2024-02-04T07:35:43;25.58;;;12.27;;
57567;SDS011;43403;51.948;5.922;2024-02-04T07:38:09;22.00;;;12.60;;
57567;SDS011;43403;51.948;5.922;2024-02-04T07:40:36;25.27;;;11.85;;
57567;SDS011;43403;51.948;5.922;2024-02-04T07:43:02;19.15;;;10.95;;
57567;SDS011;43403;51.948;5.922;2024-02-04T07:45:29;20.08;;;10.60;;
57567;SDS011;43403;51.948;5.922;2024-02-04T07:47:56;21.83;;;10.55;;
57567;SDS011;43403;51.948;5.922;2024-02-04T07:50:22;22.33;;;11.07;;
57567;SDS011;43403;51.948;5.922;2024-02-04T07:52:49;22.65;;;11.10;;
57567;SDS011;43403;51.948;5.922;2024-02-04T07:55:15;19.85;;;9.60;;
57567;SDS011;43403;51.948;5.922;2024-02-04T07:57:42;17.75;;;9.55;;
57567;SDS011;43403;51.948;5.922;2024-02-04T08:00:08;18.10;;;8.88;;
57567;SDS011;43403;51.948;5.922;2024-02-04T08:02:38;19.52;;;8.20;;
57567;SDS011;43403;51.948;5.922;2024-02-04T08:05:05;16.20;;;8.30;;
57567;SDS011;43403;51.948;5.922;2024-02-04T08:07:31;13.88;;;8.32;;
57567;SDS011;43403;51.948;5.922;2024-02-04T08:09:58;20.08;;;7.22;;
57567;SDS011;43403;51.948;5.922;2024-02-04T08:12:24;21.75;;;8.38;;
57567;SDS011;43403;51.948;5.922;2024-02-04T08:14:51;21.55;;;8.23;;
57567;SDS011;43403;51.948;5.922;2024-02-04T08:17:17;15.57;;;8.35;;
57567;SDS011;43403;51.948;5.922;2024-02-04T08:19:44;15.73;;;7.47;;
57567;SDS011;43403;51.948;5.922;2024-02-04T08:22:10;23.42;;;8.30;;
57567;SDS011;43403;51.948;5.922;2024-02-04T08:24:37;19.58;;;8.00;;
57567;SDS011;43403;51.948;5.922;2024-02-04T08:27:03;18.88;;;7.63;;
57567;SDS011;43403;51.948;5.922;2024-02-04T08:29:30;20.55;;;7.05;;
57567;SDS011;43403;51.948;5.922;2024-02-04T08:31:56;17.25;;;7.25;;
57567;SDS011;43403;51.948;5.922;2024-02-04T08:34:22;18.10;;;6.80;;
57567;SDS011;43403;51.948;5.922;2024-02-04T08:36:50;18.60;;;7.07;;
57567;SDS011;43403;51.948;5.922;2024-02-04T08:39:17;19.52;;;6.38;;
57567;SDS011;43403;51.948;5.922;2024-02-04T08:41:43;15.63;;;6.20;;
57567;SDS011;43403;51.948;5.922;2024-02-04T08:44:10;18.70;;;7.10;;
57567;SDS011;43403;51.948;5.922;2024-02-04T08:46:48;16.60;;;6.40;;
57567;SDS011;43403;51.948;5.922;2024-02-04T08:49:14;15.57;;;5.95;;
57567;SDS011;43403;51.948;5.922;2024-02-04T08:51:40;15.48;;;6.47;;
57567;SDS011;43403;51.948;5.922;2024-02-04T08:54:07;21.75;;;6.90;;
57567;SDS011;43403;51.948;5.922;2024-02-04T08:56:34;15.20;;;5.18;;
57567;SDS011;43403;51.948;5.922;2024-02-04T08:59:01;18.42;;;5.38;;
57567;SDS011;43403;51.948;5.922;2024-02-04T09:01:28;10.60;;;4.97;;
57567;SDS011;43403;51.948;5.922;2024-02-04T09:03:55;10.02;;;4.95;;
57567;SDS011;43403;51.948;5.922;2024-02-04T09:06:21;10.93;;;4.97;;
57567;SDS011;43403;51.948;5.922;2024-02-04T09:08:48;8.85;;;4.55;;
57567;SDS011;43403;51.948;5.922;2024-02-04T09:11:14;11.63;;;4.70;;
57567;SDS011;43403;51.948;5.922;2024-02-04T09:13:45;8.35;;;4.32;;
57567;SDS011;43403;51.948;5.922;2024-02-04T09:16:11;10.95;;;4.80;;
57567;SDS011;43403;51.948;5.922;2024-02-04T09:18:38;14.15;;;5.25;;
57567;SDS011;43403;51.948;5.922;2024-02-04T09:21:05;9.15;;;4.88;;
57567;SDS011;43403;51.948;5.922;2024-02-04T09:23:33;12.65;;;5.22;;
57567;SDS011;43403;51.948;5.922;2024-02-04T09:25:59;12.15;;;5.22;;
57567;SDS011;43403;51.948;5.922;2024-02-04T09:28:26;10.98;;;5.63;;
57567;SDS011;43403;51.948;5.922;2024-02-04T09:30:52;11.63;;;6.10;;
57567;SDS011;43403;51.948;5.922;2024-02-04T09:33:19;11.38;;;5.57;;
57567;SDS011;43403;51.948;5.922;2024-02-04T09:35:45;18.15;;;6.47;;
57567;SDS011;43403;51.948;5.922;2024-02-04T09:38:14;10.65;;;6.25;;
57567;SDS011;43403;51.948;5.922;2024-02-04T09:40:42;12.18;;;6.05;;
57567;SDS011;43403;51.948;5.922;2024-02-04T09:43:08;16.50;;;5.90;;
57567;SDS011;43403;51.948;5.922;2024-02-04T09:45:35;14.18;;;6.03;;
57567;SDS011;43403;51.948;5.922;2024-02-04T09:48:02;18.48;;;5.80;;
57567;SDS011;43403;51.948;5.922;2024-02-04T09:50:29;13.80;;;6.07;;
57567;SDS011;43403;51.948;5.922;2024-02-04T09:52:58;9.02;;;5.05;;
57567;SDS011;43403;51.948;5.922;2024-02-04T09:55:25;10.77;;;4.93;;
57567;SDS011;43403;51.948;5.922;2024-02-04T09:57:53;10.27;;;4.97;;
57567;SDS011;43403;51.948;5.922;2024-02-04T10:00:19;7.25;;;4.22;;
57567;SDS011;43403;51.948;5.922;2024-02-04T10:02:49;11.80;;;4.80;;
57567;SDS011;43403;51.948;5.922;2024-02-04T10:05:16;8.98;;;4.70;;
57567;SDS011;43403;51.948;5.922;2024-02-04T10:07:43;9.23;;;4.60;;
57567;SDS011;43403;51.948;5.922;2024-02-04T10:10:09;9.57;;;4.20;;
57567;SDS011;43403;51.948;5.922;2024-02-04T10:12:37;12.00;;;4.80;;
57567;SDS011;43403;51.948;5.922;2024-02-04T10:15:05;8.68;;;3.88;;
57567;SDS011;43403;51.948;5.922;2024-02-04T10:17:32;10.10;;;4.53;;
57567;SDS011;43403;51.948;5.922;2024-02-04T10:20:00;11.93;;;4.72;;
57567;SDS011;43403;51.948;5.922;2024-02-04T10:22:26;7.72;;;3.90;;
57567;SDS011;43403;51.948;5.922;2024-02-04T10:25:04;6.15;;;3.75;;
57567;SDS011;43403;51.948;5.922;2024-02-04T10:27:31;9.98;;;3.90;;
57567;SDS011;43403;51.948;5.922;2024-02-04T10:30:03;10.90;;;4.25;;
57567;SDS011;43403;51.948;5.922;2024-02-04T10:32:30;9.27;;;3.78;;
57567;SDS011;43403;51.948;5.922;2024-02-04T10:34:57;7.90;;;3.45;;
57567;SDS011;43403;51.948;5.922;2024-02-04T10:37:24;5.80;;;3.10;;
57567;SDS011;43403;51.948;5.922;2024-02-04T10:39:55;4.85;;;3.25;;
57567;SDS011;43403;51.948;5.922;2024-02-04T10:42:23;7.70;;;3.55;;
57567;SDS011;43403;51.948;5.922;2024-02-04T10:44:50;8.85;;;3.25;;
57567;SDS011;43403;51.948;5.922;2024-02-04T10:47:19;7.65;;;3.38;;
57567;SDS011;43403;51.948;5.922;2024-02-04T10:49:50;9.55;;;3.00;;
57567;SDS011;43403;51.948;5.922;2024-02-04T10:52:16;7.63;;;3.00;;
57567;SDS011;43403;51.948;5.922;2024-02-04T10:54:44;7.88;;;3.00;;
57567;SDS011;43403;51.948;5.922;2024-02-04T10:57:12;7.22;;;2.60;;
57567;SDS011;43403;51.948;5.922;2024-02-04T10:59:39;6.95;;;2.60;;
57567;SDS011;43403;51.948;5.922;2024-02-04T11:02:05;8.25;;;2.92;;
57567;SDS011;43403;51.948;5.922;2024-02-04T11:04:33;4.60;;;2.80;;
57567;SDS011;43403;51.948;5.922;2024-02-04T11:07:01;10.25;;;2.53;;
57567;SDS011;43403;51.948;5.922;2024-02-04T11:09:27;5.28;;;2.40;;
57567;SDS011;43403;51.948;5.922;2024-02-04T11:11:55;6.00;;;2.00;;
57567;SDS011;43403;51.948;5.922;2024-02-04T11:14:22;4.55;;;1.95;;
57567;SDS011;43403;51.948;5.922;2024-02-04T11:27:31;7.15;;;1.70;;
57567;SDS011;43403;51.948;5.922;2024-02-04T11:29:58;5.20;;;1.67;;
57567;SDS011;43403;51.948;5.922;2024-02-04T11:32:24;3.63;;;1.35;;
57567;SDS011;43403;51.948;5.922;2024-02-04T11:34:53;3.60;;;1.60;;
57567;SDS011;43403;51.948;5.922;2024-02-04T11:37:21;4.28;;;1.60;;
57567;SDS011;43403;51.948;5.922;2024-02-04T11:39:53;4.30;;;1.33;;
57567;SDS011;43403;51.948;5.922;2024-02-04T11:42:25;2.42;;;1.33;;
57567;SDS011;43403;51.948;5.922;2024-02-04T11:45:06;4.03;;;1.40;;
57567;SDS011;43403;51.948;5.922;2024-02-04T11:47:33;3.10;;;1.20;;
57567;SDS011;43403;51.948;5.922;2024-02-04T11:50:00;1.85;;;1.20;;
57567;SDS011;43403;51.948;5.922;2024-02-04T11:52:27;2.72;;;1.33;;
57567;SDS011;43403;51.948;5.922;2024-02-04T11:54:54;1.75;;;1.35;;
57567;SDS011;43403;51.948;5.922;2024-02-04T11:57:21;4.95;;;1.75;;
57567;SDS011;43403;51.948;5.922;2024-02-04T11:59:49;2.50;;;1.70;;
57567;SDS011;43403;51.948;5.922;2024-02-04T12:02:17;5.18;;;1.80;;
57567;SDS011;43403;51.948;5.922;2024-02-04T12:04:44;5.53;;;2.00;;
57567;SDS011;43403;51.948;5.922;2024-02-04T12:07:11;3.15;;;2.30;;
57567;SDS011;43403;51.948;5.922;2024-02-04T12:09:38;4.90;;;2.30;;
57567;SDS011;43403;51.948;5.922;2024-02-04T12:12:05;5.47;;;2.47;;
57567;SDS011;43403;51.948;5.922;2024-02-04T12:14:32;4.30;;;2.30;;
57567;SDS011;43403;51.948;5.922;2024-02-04T12:17:07;5.63;;;2.80;;
57567;SDS011;43403;51.948;5.922;2024-02-04T12:19:35;5.70;;;2.83;;
57567;SDS011;43403;51.948;5.922;2024-02-04T12:22:06;8.05;;;3.17;;
57567;SDS011;43403;51.948;5.922;2024-02-04T12:24:36;7.53;;;3.28;;
57567;SDS011;43403;51.948;5.922;2024-02-04T12:27:06;5.35;;;3.13;;
57567;SDS011;43403;51.948;5.922;2024-02-04T12:29:33;8.13;;;3.70;;
57567;SDS011;43403;51.948;5.922;2024-02-04T12:32:02;5.65;;;3.03;;
57567;SDS011;43403;51.948;5.922;2024-02-04T12:34:30;9.77;;;4.10;;
57567;SDS011;43403;51.948;5.922;2024-02-04T12:37:01;8.02;;;3.78;;
57567;SDS011;43403;51.948;5.922;2024-02-04T12:39:30;10.70;;;4.30;;
57567;SDS011;43403;51.948;5.922;2024-02-04T12:42:00;13.95;;;4.60;;
57567;SDS011;43403;51.948;5.922;2024-02-04T12:44:26;8.23;;;4.35;;
57567;SDS011;43403;51.948;5.922;2024-02-04T12:46:53;13.05;;;4.38;;
57567;SDS011;43403;51.948;5.922;2024-02-04T12:49:20;15.98;;;4.63;;
57567;SDS011;43403;51.948;5.922;2024-02-04T12:51:48;11.07;;;3.95;;
57567;SDS011;43403;51.948;5.922;2024-02-04T12:54:16;14.40;;;4.63;;
57567;SDS011;43403;51.948;5.922;2024-02-04T12:56:48;14.40;;;4.75;;
57567;SDS011;43403;51.948;5.922;2024-02-04T12:59:27;10.27;;;4.72;;
57567;SDS011;43403;51.948;5.922;2024-02-04T13:01:55;13.60;;;4.82;;
57567;SDS011;43403;51.948;5.922;2024-02-04T13:04:22;9.77;;;4.82;;
57567;SDS011;43403;51.948;5.922;2024-02-04T13:06:49;13.60;;;4.30;;
57567;SDS011;43403;51.948;5.922;2024-02-04T13:09:16;13.27;;;4.40;;
57567;SDS011;43403;51.948;5.922;2024-02-04T13:11:43;19.08;;;5.13;;
57567;SDS011;43403;51.948;5.922;2024-02-04T13:14:10;13.00;;;4.45;;
57567;SDS011;43403;51.948;5.922;2024-02-04T13:16:38;11.98;;;4.10;;
57567;SDS011;43403;51.948;5.922;2024-02-04T13:19:04;11.43;;;4.57;;
57567;SDS011;43403;51.948;5.922;2024-02-04T13:21:31;16.17;;;4.75;;
57567;SDS011;43403;51.948;5.922;2024-02-04T13:23:58;9.80;;;3.80;;
57567;SDS011;43403;51.948;5.922;2024-02-04T13:26:24;12.82;;;5.07;;
57567;SDS011;43403;51.948;5.922;2024-02-04T13:28:51;11.48;;;4.18;;
57567;SDS011;43403;51.948;5.922;2024-02-04T13:31:18;11.65;;;4.47;;
57567;SDS011;43403;51.948;5.922;2024-02-04T13:33:45;8.75;;;4.10;;
57567;SDS011;43403;51.948;5.922;2024-02-04T13:36:11;11.30;;;5.00;;
57567;SDS011;43403;51.948;5.922;2024-02-04T13:38:38;8.35;;;4.35;;
57567;SDS011;43403;51.948;5.922;2024-02-04T13:41:04;13.05;;;4.57;;
57567;SDS011;43403;51.948;5.922;2024-02-04T13:43:33;13.07;;;5.10;;
57567;SDS011;43403;51.948;5.922;2024-02-04T13:46:00;12.57;;;5.90;;
57567;SDS011;43403;51.948;5.922;2024-02-04T13:48:27;15.57;;;5.68;;
57567;SDS011;43403;51.948;5.922;2024-02-04T13:50:53;16.30;;;5.60;;
57567;SDS011;43403;51.948;5.922;2024-02-04T13:53:23;13.70;;;5.53;;
57567;SDS011;43403;51.948;5.922;2024-02-04T13:55:49;12.13;;;5.10;;
57567;SDS011;43403;51.948;5.922;2024-02-04T13:58:15;13.70;;;5.63;;
57567;SDS011;43403;51.948;5.922;2024-02-04T14:00:44;16.73;;;5.57;;
57567;SDS011;43403;51.948;5.922;2024-02-04T14:03:12;13.43;;;5.13;;
57567;SDS011;43403;51.948;5.922;2024-02-04T14:05:41;12.55;;;4.53;;
57567;SDS011;43403;51.948;5.922;2024-02-04T14:08:08;13.25;;;4.53;;
57567;SDS011;43403;51.948;5.922;2024-02-04T14:10:35;12.75;;;4.32;;
57567;SDS011;43403;51.948;5.922;2024-02-04T14:13:03;12.25;;;4.07;;
57567;SDS011;43403;51.948;5.922;2024-02-04T14:15:35;16.92;;;4.45;;
57567;SDS011;43403;51.948;5.922;2024-02-04T14:18:02;14.00;;;4.88;;
57567;SDS011;43403;51.948;5.922;2024-02-04T14:20:29;8.43;;;3.83;;
57567;SDS011;43403;51.948;5.922;2024-02-04T14:22:55;13.80;;;4.45;;
57567;SDS011;43403;51.948;5.922;2024-02-04T14:25:23;14.15;;;4.63;;
57567;SDS011;43403;51.948;5.922;2024-02-04T14:27:54;10.30;;;4.43;;
57567;SDS011;43403;51.948;5.922;2024-02-04T14:30:21;11.38;;;4.03;;
57567;SDS011;43403;51.948;5.922;2024-02-04T14:32:48;16.20;;;4.55;;
57567;SDS011;43403;51.948;5.922;2024-02-04T14:35:14;14.63;;;4.65;;
57567;SDS011;43403;51.948;5.922;2024-02-04T14:37:41;10.82;;;4.07;;
57567;SDS011;43403;51.948;5.922;2024-02-04T14:40:09;11.57;;;4.10;;
57567;SDS011;43403;51.948;5.922;2024-02-04T14:42:37;14.82;;;3.80;;